Time;durP1;ratioP1;P1;durP2;ratioP2;P2;SDS_P1;SDS_P2;PMS_P1;PMS_P2;Temp;Humidity;BMP_temperature;BMP_pressure;BME280_temperature;BME280_humidity;BME280_pressure;Samples;Min_cycle;Max_cycle;Signal;HPM_P1;HPM_P2
2022/07/13 00:01:41;;;;;;;1.63;0.45;;;;;;;24.31;26.06;98992.72;4991901;28;20034;-75
2022/07/13 00:04:06;;;;;;;2.40;0.68;;;;;;;24.31;26.14;98986.56;4974971;28;20077;-75
2022/07/13 00:06:32;;;;;;;0.90;0.43;;;;;;;24.28;26.18;98982.44;4991843;28;20109;-75
2022/07/13 00:08:57;;;;;;;3.40;0.60;;;;;;;24.29;26.39;98984.09;4975077;28;20108;-75
2022/07/13 00:11:23;;;;;;;2.60;0.70;;;;;;;24.30;26.14;98991.06;4992688;28;20037;-75
2022/07/13 00:13:48;;;;;;;1.98;0.57;;;;;;;24.29;26.40;98984.09;4974955;28;20043;-75
2022/07/13 00:16:13;;;;;;;0.85;0.50;;;;;;;24.28;26.40;98977.13;4992723;28;20379;-75
2022/07/13 00:18:39;;;;;;;3.25;0.60;;;;;;;24.26;26.27;98979.16;4992777;28;20034;-74
2022/07/13 00:21:04;;;;;;;0.77;0.47;;;;;;;24.27;26.44;98978.13;4992922;28;20034;-75
2022/07/13 00:23:30;;;;;;;1.02;0.40;;;;;;;24.25;26.39;98972.19;4992521;28;20026;-75
2022/07/13 00:25:56;;;;;;;4.18;0.95;;;;;;;24.20;26.32;98967.44;4992669;28;20112;-75
2022/07/13 00:28:21;;;;;;;3.70;0.40;;;;;;;24.22;26.37;98971.78;4991635;28;20070;-76
2022/07/13 00:30:46;;;;;;;2.30;0.63;;;;;;;24.19;26.53;98975.66;4974685;28;20100;-75
2022/07/13 00:33:12;;;;;;;3.28;0.52;;;;;;;24.09;26.57;98962.69;4992627;28;20066;-75
2022/07/13 00:35:37;;;;;;;2.53;0.50;;;;;;;24.12;26.58;98977.47;4992670;28;20026;-75
2022/07/13 00:38:03;;;;;;;1.23;0.50;;;;;;;24.14;26.56;98983.44;4991446;28;20035;-76
2022/07/13 00:40:28;;;;;;;1.70;0.50;;;;;;;24.10;26.59;98980.34;4995972;28;20038;-76
2022/07/13 00:42:54;;;;;;;3.00;0.80;;;;;;;24.09;26.77;98988.53;4994756;28;20035;-76
2022/07/13 00:45:19;;;;;;;2.28;0.70;;;;;;;24.08;26.59;98976.22;4994803;28;20379;-76
2022/07/13 00:47:46;;;;;;;6.82;0.70;;;;;;;24.08;26.64;98978.88;4995901;28;20109;-75
2022/07/13 00:50:11;;;;;;;1.02;0.40;;;;;;;24.07;26.55;98970.06;4995184;28;20117;-75
2022/07/13 00:52:37;;;;;;;0.93;0.43;;;;;;;24.10;26.66;98977.69;4994030;28;20117;-75
2022/07/13 00:55:05;;;;;;;5.22;0.60;;;;;;;24.10;26.76;98972.34;4978529;28;20104;-76
2022/07/13 00:57:31;;;;;;;2.97;0.50;;;;;;;24.15;26.50;98977.09;4994822;28;20041;-75
2022/07/13 00:59:56;;;;;;;2.92;0.63;;;;;;;24.13;26.44;98977.28;4994259;28;20050;-76
2022/07/13 01:02:22;;;;;;;3.17;0.70;;;;;;;24.13;26.79;98977.28;4995420;28;20072;-76
2022/07/13 01:04:47;;;;;;;2.05;0.50;;;;;;;24.10;26.66;98975.00;4977784;28;20049;-76
2022/07/13 01:07:13;;;;;;;1.70;0.40;;;;;;;24.08;26.67;98974.38;4978145;28;20548;-76
2022/07/13 01:09:39;;;;;;;1.15;0.60;;;;;;;24.07;26.81;98970.06;4987392;28;20069;-76
2022/07/13 01:12:05;;;;;;;2.90;0.52;;;;;;;24.03;26.78;98976.81;4991405;28;20026;-76
2022/07/13 01:14:31;;;;;;;1.60;0.40;;;;;;;24.05;27.02;98973.94;4991837;28;20030;-76
2022/07/13 01:16:57;;;;;;;2.20;0.50;;;;;;;24.04;26.95;98973.13;4993455;28;20077;-76
2022/07/13 01:19:22;;;;;;;4.03;0.50;;;;;;;24.04;26.84;98967.81;4976600;28;20068;-76
2022/07/13 01:21:49;;;;;;;3.60;0.60;;;;;;;24.03;26.83;98964.28;4976454;28;20027;-75
2022/07/13 01:24:15;;;;;;;1.05;0.50;;;;;;;24.04;26.91;98962.47;4991578;28;20136;-76
2022/07/13 01:26:40;;;;;;;4.35;0.60;;;;;;;24.00;26.82;98953.22;4975797;28;20512;-76
2022/07/13 01:29:06;;;;;;;1.27;0.50;;;;;;;24.06;26.63;98962.28;4976156;28;20030;-76
2022/07/13 01:31:36;;;;;;;3.30;0.50;;;;;;;24.00;26.80;98959.38;4992234;28;20049;-75
2022/07/13 01:34:01;;;;;;;5.05;0.65;;;;;;;24.01;26.98;98961.00;4965438;28;20051;-76
2022/07/13 01:36:27;;;;;;;1.25;0.50;;;;;;;24.02;26.74;98956.50;4968177;28;20032;-76
2022/07/13 01:38:52;;;;;;;2.83;0.50;;;;;;;23.99;26.82;98957.72;4992343;28;20030;-75
2022/07/13 01:41:18;;;;;;;2.10;0.70;;;;;;;24.00;26.79;98955.88;4975651;28;20037;-75
2022/07/13 01:43:44;;;;;;;3.85;0.60;;;;;;;23.98;26.81;98950.75;4976547;28;20092;-75
2022/07/13 01:46:10;;;;;;;1.83;0.40;;;;;;;23.95;26.64;98947.66;4961288;28;20045;-75
2022/07/13 01:48:35;;;;;;;5.25;0.60;;;;;;;23.98;26.79;98949.94;4977280;28;20418;-75
2022/07/13 01:51:01;;;;;;;1.70;0.50;;;;;;;23.94;27.02;98940.66;4960369;28;20104;-75
2022/07/13 01:53:26;;;;;;;1.67;0.55;;;;;;;23.96;26.84;98941.31;4977345;28;20039;-75
2022/07/13 01:55:52;;;;;;;2.35;0.28;;;;;;;23.95;27.16;98942.31;4994700;28;20030;-75
2022/07/13 01:58:18;;;;;;;1.45;0.60;;;;;;;23.95;26.89;98947.66;4994696;28;20057;-75
2022/07/13 02:00:43;;;;;;;1.23;0.43;;;;;;;23.93;26.79;98947.03;4994269;28;20440;-75
2022/07/13 02:03:09;;;;;;;1.63;0.40;;;;;;;23.93;26.73;98947.84;4993360;28;20065;-75
2022/07/13 02:05:35;;;;;;;0.70;0.40;;;;;;;23.91;26.82;98952.56;4976758;28;20041;-77
2022/07/13 02:08:00;;;;;;;3.03;0.60;;;;;;;23.88;26.97;98949.47;4994523;28;20034;-75
2022/07/13 02:10:34;;;;;;;2.13;0.60;;;;;;;23.81;26.87;98928.91;4994497;28;20034;-76
2022/07/13 02:13:01;;;;;;;1.98;0.60;;;;;;;23.82;26.98;98941.22;4978257;28;20034;-76
2022/07/13 02:15:27;;;;;;;0.90;0.40;;;;;;;23.76;27.03;98942.00;4993269;28;20034;-76
2022/07/13 02:17:52;;;;;;;4.38;0.40;;;;;;;23.76;27.11;98939.34;4977146;28;20101;-77
2022/07/13 02:20:18;;;;;;;1.10;0.47;;;;;;;23.73;27.32;98931.72;4977175;28;20409;-75
2022/07/13 02:22:44;;;;;;;1.17;0.40;;;;;;;23.76;27.04;98943.84;4976916;28;20026;-75
2022/07/13 02:25:10;;;;;;;1.25;0.40;;;;;;;23.73;27.30;98946.91;4976638;28;20457;-75
2022/07/13 02:27:35;;;;;;;0.82;0.40;;;;;;;23.70;27.18;98942.78;4976697;28;20085;-75
2022/07/13 02:30:01;;;;;;;1.75;0.50;;;;;;;23.72;27.17;98947.91;4976848;28;20037;-74
2022/07/13 02:32:26;;;;;;;1.67;0.70;;;;;;;23.66;27.21;98938.88;4993665;28;20042;-75
2022/07/13 02:34:52;;;;;;;1.38;0.50;;;;;;;23.70;27.38;98941.97;4976647;28;20113;-75
2022/07/13 02:37:17;;;;;;;1.40;0.60;;;;;;;23.68;27.33;98939.50;4960067;28;20042;-75
2022/07/13 02:39:42;;;;;;;1.23;0.47;;;;;;;23.69;27.59;98942.97;4993873;28;20065;-75
2022/07/13 02:42:08;;;;;;;1.23;0.55;;;;;;;23.70;27.37;98941.97;4993812;28;20031;-74
2022/07/13 02:44:34;;;;;;;0.95;0.40;;;;;;;23.72;27.31;98939.91;4993560;28;20501;-73
2022/07/13 02:46:59;;;;;;;1.98;0.60;;;;;;;23.70;27.18;98931.31;4976339;28;20018;-74
2022/07/13 02:49:25;;;;;;;2.40;0.40;;;;;;;23.71;27.24;98936.44;4992595;28;20038;-72
2022/07/13 02:51:50;;;;;;;2.35;0.60;;;;;;;23.75;27.28;98939.53;4976253;28;20482;-72
2022/07/13 02:54:16;;;;;;;1.55;0.50;;;;;;;23.77;27.40;98934.84;4976572;28;20034;-73
2022/07/13 02:56:42;;;;;;;3.20;0.60;;;;;;;23.75;27.05;98935.03;4975976;28;20046;-73
2022/07/13 02:59:07;;;;;;;1.50;0.50;;;;;;;23.79;27.19;98940.78;4992743;28;20100;-75
2022/07/13 03:01:33;;;;;;;4.43;0.60;;;;;;;23.81;27.46;98936.88;4993192;28;20177;-75
2022/07/13 03:03:58;;;;;;;1.08;0.50;;;;;;;23.83;27.08;98940.22;4991812;28;20034;-74
2022/07/13 03:06:24;;;;;;;2.88;0.40;;;;;;;23.96;27.08;98943.97;4959453;28;20034;-74
2022/07/13 03:08:49;;;;;;;1.27;0.60;;;;;;;24.29;26.47;98938.75;4975711;28;20081;-74
2022/07/13 03:11:15;;;;;;;1.77;0.65;;;;;;;24.60;26.04;98945.41;4992164;28;20537;-74
2022/07/13 03:13:40;;;;;;;2.42;0.45;;;;;;;24.66;25.80;98938.44;4991912;28;20038;-74
2022/07/13 03:16:06;;;;;;;0.60;0.38;;;;;;;24.86;25.68;98941.13;4976310;28;20386;-79
2022/07/13 03:18:35;;;;;;;2.83;0.55;;;;;;;24.99;26.84;98937.66;4993066;28;20097;-80
2022/07/13 03:21:00;;;;;;;1.17;0.40;;;;;;;24.91;27.64;98938.69;4999860;28;20062;-70
2022/07/13 03:23:26;;;;;;;5.88;0.60;;;;;;;24.99;28.13;98932.31;4975807;28;20092;-74
2022/07/13 03:25:51;;;;;;;14.07;0.75;;;;;;;25.06;27.99;98933.97;4975724;28;20061;-71
2022/07/13 03:28:17;;;;;;;12.25;0.93;;;;;;;25.05;27.88;98929.63;4993192;28;20042;-75
2022/07/13 03:30:42;;;;;;;7.50;0.75;;;;;;;25.13;28.00;98941.13;4991742;28;20034;-75
2022/07/13 03:33:08;;;;;;;8.82;0.68;;;;;;;25.28;27.76;98947.09;4959507;28;20053;-69
2022/07/13 03:35:33;;;;;;;7.57;1.00;;;;;;;25.68;27.11;98932.84;4975937;28;20026;-71
2022/07/13 03:37:59;;;;;;;7.53;0.60;;;;;;;26.04;26.39;98948.34;4992920;28;20038;-72
2022/07/13 03:40:25;;;;;;;1.80;0.60;;;;;;;25.97;26.00;98931.53;4975072;28;20046;-73
2022/07/13 03:42:51;;;;;;;8.77;1.00;;;;;;;25.92;26.90;98940.16;4992314;28;20410;-78
2022/07/13 03:45:16;;;;;;;20.67;1.20;;;;;;;25.85;27.12;98938.53;4976059;28;20046;-79
2022/07/13 03:47:42;;;;;;;10.80;0.80;;;;;;;25.80;28.06;98948.00;4975047;28;20038;-82
2022/07/13 03:50:07;;;;;;;4.07;0.82;;;;;;;26.87;25.62;98946.69;4973557;28;20418;-76
2022/07/13 03:52:33;;;;;;;13.25;0.80;;;;;;;27.31;25.26;98941.38;4992602;28;20046;-75
2022/07/13 03:54:58;;;;;;;6.53;0.60;;;;;;;26.88;25.67;98949.13;4991197;28;20030;-74
2022/07/13 03:57:24;;;;;;;7.43;0.70;;;;;;;26.70;26.60;98947.19;4957845;28;20104;-78
2022/07/13 03:59:50;;;;;;;13.10;1.02;;;;;;;26.57;27.38;98941.06;4973477;28;20042;-77
2022/07/13 04:02:15;;;;;;;8.18;0.82;;;;;;;26.66;27.58;98942.47;4991374;28;20030;-80
2022/07/13 04:04:41;;;;;;;10.77;0.80;;;;;;;26.48;27.14;98941.34;4974251;28;20030;-79
2022/07/13 04:07:06;;;;;;;6.15;0.60;;;;;;;26.35;28.19;98936.88;4973705;28;20034;-79
2022/07/13 04:09:32;;;;;;;10.85;0.85;;;;;;;26.25;27.70;98938.38;4974727;28;20441;-79
2022/07/13 04:11:58;;;;;;;11.00;0.73;;;;;;;26.11;28.20;98935.78;4991316;28;20037;-84
2022/07/13 04:14:23;;;;;;;2.92;0.65;;;;;;;26.05;28.40;98938.50;4992918;28;20033;-82
2022/07/13 04:16:49;;;;;;;5.53;0.65;;;;;;;25.98;28.81;98944.69;4978282;28;20030;-78
2022/07/13 04:19:14;;;;;;;6.60;0.90;;;;;;;25.92;28.96;98942.00;4995915;28;20041;-82
2022/07/13 04:21:40;;;;;;;10.70;1.13;;;;;;;25.91;28.86;98945.72;4996193;28;20030;-77
2022/07/13 04:24:05;;;;;;;7.35;1.10;;;;;;;28.08;25.38;98933.72;4995962;28;20038;-86
2022/07/13 04:26:31;;;;;;;3.22;1.05;;;;;;;29.81;22.62;98948.16;4979239;28;20030;-77
2022/07/13 04:28:56;;;;;;;6.28;0.93;;;;;;;31.17;21.12;98951.94;4962659;28;20042;-78
2022/07/13 04:31:22;;;;;;;3.58;0.60;;;;;;;32.39;19.16;98936.75;4996348;28;20042;-75
2022/07/13 04:33:47;;;;;;;2.63;0.60;;;;;;;33.47;17.99;98951.13;4996157;28;20132;-75
2022/07/13 04:36:12;;;;;;;3.63;0.70;;;;;;;34.59;16.72;98955.34;4994149;28;20030;-75
2022/07/13 04:38:38;;;;;;;1.55;0.40;;;;;;;35.63;15.66;98957.69;4960407;28;20073;-75
2022/07/13 04:41:04;;;;;;;3.75;0.70;;;;;;;36.56;14.90;98957.25;4993702;28;20023;-75
2022/07/13 04:43:29;;;;;;;3.28;0.70;;;;;;;37.47;14.07;98957.53;4976589;28;20038;-76
2022/07/13 04:45:55;;;;;;;2.22;0.50;;;;;;;38.28;13.63;98956.81;4994161;28;20046;-78
2022/07/13 04:48:20;;;;;;;7.53;0.70;;;;;;;39.02;13.04;98958.94;4976692;28;20042;-78
2022/07/13 04:50:46;;;;;;;5.95;0.60;;;;;;;39.80;12.41;98969.22;4978706;28;20037;-76
2022/07/13 04:53:11;;;;;;;1.92;0.50;;;;;;;39.82;12.24;98974.41;4995861;28;20490;-76
2022/07/13 04:55:37;;;;;;;3.75;0.73;;;;;;;38.57;12.81;98964.00;4978422;28;20030;-75
2022/07/13 04:58:03;;;;;;;1.33;0.50;;;;;;;37.68;13.57;98962.75;4994562;28;20501;-76
2022/07/13 05:00:28;;;;;;;2.53;0.60;;;;;;;37.81;13.52;98969.41;4977833;28;20038;-76
2022/07/13 05:02:54;;;;;;;0.98;0.40;;;;;;;39.47;12.21;98968.53;4978311;28;20065;-77
2022/07/13 05:05:19;;;;;;;2.20;0.52;;;;;;;39.88;12.12;98967.72;4995089;28;20114;-77
2022/07/13 05:07:45;;;;;;;2.42;0.63;;;;;;;39.74;11.95;98976.75;4994152;28;20045;-76
2022/07/13 05:10:10;;;;;;;2.00;0.60;;;;;;;39.91;11.96;98972.56;4995610;28;20046;-75
2022/07/13 05:12:39;;;;;;;2.10;0.50;;;;;;;39.83;12.13;98973.28;4994746;28;20038;-77
2022/07/13 05:15:07;;;;;;;1.60;0.52;;;;;;;41.03;11.28;98968.38;4977991;28;20031;-77
2022/07/13 05:17:32;;;;;;;1.90;0.60;;;;;;;42.07;10.12;98978.13;4995260;28;20125;-75
2022/07/13 05:19:58;;;;;;;2.05;0.60;;;;;;;42.83;9.90;98974.88;4995403;28;20026;-75
2022/07/13 05:22:23;;;;;;;4.28;0.60;;;;;;;43.51;9.39;98970.66;4995947;28;20437;-76
2022/07/13 05:24:49;;;;;;;1.97;0.70;;;;;;;44.12;9.02;98975.00;4977231;28;20027;-76
2022/07/13 05:27:14;;;;;;;1.53;0.57;;;;;;;44.69;8.68;98973.56;4994806;28;20076;-75
2022/07/13 05:29:40;;;;;;;2.73;0.53;;;;;;;45.19;8.68;98966.25;4995716;28;20026;-76
2022/07/13 05:32:06;;;;;;;1.50;0.50;;;;;;;45.57;7.99;98974.19;4995207;28;20038;-77
2022/07/13 05:34:32;;;;;;;3.40;0.50;;;;;;;46.00;7.57;98969.22;4978478;28;20082;-77
2022/07/13 05:36:57;;;;;;;1.67;0.70;;;;;;;46.38;7.62;98968.75;4994161;28;20037;-75
2022/07/13 05:39:23;;;;;;;2.63;0.60;;;;;;;46.69;7.86;98966.50;4961056;28;20042;-76
2022/07/13 05:41:48;;;;;;;1.30;0.47;;;;;;;46.92;7.35;98973.06;4977836;28;20497;-77
2022/07/13 05:44:14;;;;;;;1.70;0.50;;;;;;;47.15;7.13;98971.63;4994058;28;20062;-76
2022/07/13 05:46:39;;;;;;;2.97;0.50;;;;;;;47.38;7.19;98971.81;4995082;28;20085;-76
2022/07/13 05:49:05;;;;;;;1.80;0.53;;;;;;;47.57;7.01;98969.13;4994001;28;20130;-77
2022/07/13 05:51:31;;;;;;;5.53;0.67;;;;;;;47.66;6.72;98969.69;4994334;28;20414;-76
2022/07/13 05:53:56;;;;;;;6.03;0.60;;;;;;;47.82;6.84;98971.66;4977200;28;20513;-75
2022/07/13 05:56:22;;;;;;;4.73;0.60;;;;;;;47.93;6.97;98969.13;4994704;28;20040;-76
2022/07/13 05:58:48;;;;;;;5.97;0.83;;;;;;;48.00;6.86;98981.16;4994072;28;20113;-76
2022/07/13 06:01:14;;;;;;;5.95;0.60;;;;;;;48.12;6.75;98966.38;4977249;28;20034;-76
2022/07/13 06:03:39;;;;;;;2.50;0.50;;;;;;;48.24;6.55;98979.28;4960560;28;20482;-77
2022/07/13 06:06:05;;;;;;;2.53;0.60;;;;;;;48.28;6.35;98971.84;4977345;28;20505;-76
2022/07/13 06:08:31;;;;;;;4.33;0.43;;;;;;;48.36;6.59;98981.91;4977672;28;20576;-76
2022/07/13 06:10:56;;;;;;;2.30;0.50;;;;;;;48.40;6.30;98978.44;4993230;28;20037;-76
2022/07/13 06:13:22;;;;;;;1.33;0.60;;;;;;;48.49;6.44;98976.22;4994912;28;20039;-77
2022/07/13 06:15:47;;;;;;;2.20;0.60;;;;;;;48.48;6.25;98977.41;4977247;28;20026;-76
2022/07/13 06:18:13;;;;;;;1.57;0.50;;;;;;;48.54;6.50;98984.25;4994450;28;20081;-76
2022/07/13 06:20:38;;;;;;;3.20;0.60;;;;;;;48.59;6.13;98977.63;4994421;28;20030;-76
2022/07/13 06:23:09;;;;;;;2.17;0.53;;;;;;;48.53;6.24;98975.13;4994670;28;20030;-77
2022/07/13 06:25:38;;;;;;;2.88;0.63;;;;;;;48.55;6.23;98977.53;4976406;28;20106;-76
2022/07/13 06:28:04;;;;;;;2.42;0.50;;;;;;;48.56;6.08;98979.16;4976717;28;20137;-76
2022/07/13 06:30:29;;;;;;;4.15;0.55;;;;;;;48.57;6.23;98971.63;4959081;28;20145;-76
2022/07/13 06:32:55;;;;;;;2.30;0.50;;;;;;;48.48;6.28;98977.41;4976401;28;20058;-76
2022/07/13 06:35:20;;;;;;;2.23;0.40;;;;;;;48.48;6.44;98971.88;4994044;28;20041;-75
2022/07/13 06:37:46;;;;;;;2.10;0.83;;;;;;;48.39;6.58;98971.28;4976478;28;20045;-76
2022/07/13 06:40:11;;;;;;;3.07;0.60;;;;;;;48.35;6.48;98980.31;4960496;28;20058;-76
2022/07/13 06:42:37;;;;;;;2.72;0.50;;;;;;;48.35;6.48;98979.50;4992809;28;20037;-76
2022/07/13 06:45:03;;;;;;;2.53;0.63;;;;;;;48.27;6.23;98978.56;4976536;28;20037;-76
2022/07/13 06:47:29;;;;;;;;;;;;;;;48.13;6.45;98975.50;4992233;28;20034;-75
2022/07/13 06:49:54;;;;;;;;;;;;;;;47.99;6.55;98975.97;4992981;28;19921;-76
2022/07/13 06:52:19;;;;;;;3.00;0.60;;;;;;;47.99;7.03;98960.16;4993924;28;19914;-77
2022/07/13 06:54:45;;;;;;;3.80;0.60;;;;;;;47.92;6.83;98967.50;4995629;28;20065;-77
2022/07/13 06:57:11;;;;;;;1.73;0.40;;;;;;;47.83;7.07;98965.75;4976243;28;20022;-77
2022/07/13 06:59:36;;;;;;;5.03;0.73;;;;;;;47.71;6.73;98965.09;4993718;28;20117;-76
2022/07/13 07:02:02;;;;;;;11.03;0.57;;;;;;;47.63;6.96;98972.38;4976304;28;20046;-76
2022/07/13 07:04:29;;;;;;;2.53;0.40;;;;;;;47.45;7.22;98969.22;4993604;28;20062;-76
2022/07/13 07:06:55;;;;;;;2.90;0.70;;;;;;;47.35;7.38;98967.81;4975700;28;20031;-77
2022/07/13 07:09:21;;;;;;;4.03;0.47;;;;;;;47.20;7.36;98974.13;4975972;28;20039;-76
2022/07/13 07:11:46;;;;;;;0.90;0.33;;;;;;;47.07;7.55;98971.44;4992165;28;20038;-76
2022/07/13 07:14:12;;;;;;;3.27;0.50;;;;;;;46.96;7.18;98977.88;4959270;28;20421;-76
2022/07/13 07:16:37;;;;;;;4.47;0.47;;;;;;;46.78;7.67;98977.34;4975875;28;20109;-76
2022/07/13 07:19:03;;;;;;;1.63;0.40;;;;;;;46.58;7.50;98961.47;4993376;28;20033;-75
2022/07/13 07:21:29;;;;;;;2.25;0.50;;;;;;;46.44;7.73;98963.81;4975653;28;20518;-76
2022/07/13 07:23:55;;;;;;;1.35;0.40;;;;;;;46.28;8.06;98971.25;4993482;28;20093;-75
2022/07/13 07:26:21;;;;;;;6.90;0.50;;;;;;;46.10;8.04;98979.78;4975399;28;20043;-76
2022/07/13 07:28:46;;;;;;;2.83;0.50;;;;;;;45.96;8.12;98976.56;4959655;28;20054;-77
2022/07/13 07:31:11;;;;;;;3.60;0.50;;;;;;;45.80;7.65;98971.81;4992949;28;20089;-76
2022/07/13 07:33:37;;;;;;;4.33;0.60;;;;;;;45.62;8.24;98979.47;4992853;28;20073;-76
2022/07/13 07:36:04;;;;;;;2.47;0.40;;;;;;;45.47;8.27;98980.19;4974914;28;20486;-77
2022/07/13 07:38:29;;;;;;;3.65;0.70;;;;;;;45.36;8.20;98981.75;4975787;28;20030;-76
2022/07/13 07:40:55;;;;;;;3.57;0.47;;;;;;;45.23;8.67;98975.44;4993069;28;20041;-77
2022/07/13 07:43:20;;;;;;;2.33;0.30;;;;;;;45.11;8.32;98970.72;4975741;28;20026;-76
2022/07/13 07:45:45;;;;;;;1.93;0.60;;;;;;;45.03;8.32;98963.38;4975580;28;20030;-75
2022/07/13 07:48:11;;;;;;;1.90;0.47;;;;;;;44.86;8.66;98976.13;4991568;28;20062;-76
2022/07/13 07:50:36;;;;;;;4.73;0.60;;;;;;;44.73;8.37;98978.06;4992972;28;20426;-76
2022/07/13 07:53:02;;;;;;;3.80;0.47;;;;;;;44.61;8.53;98983.53;4959391;28;20034;-77
2022/07/13 07:55:28;;;;;;;2.43;0.30;;;;;;;44.46;8.85;98982.19;4975040;28;20038;-76
2022/07/13 07:57:53;;;;;;;5.73;0.53;;;;;;;44.40;8.81;98978.03;4991855;28;20474;-77
2022/07/13 08:00:19;;;;;;;2.30;0.47;;;;;;;44.32;8.96;98979.72;4993033;28;20493;-77
2022/07/13 08:02:45;;;;;;;1.63;0.30;;;;;;;44.22;8.91;98980.94;4975816;28;20104;-78
2022/07/13 08:05:10;;;;;;;2.10;0.50;;;;;;;44.13;8.76;98971.13;4958942;28;20046;-77
2022/07/13 08:07:43;;;;;;;3.53;0.57;;;;;;;43.99;9.17;98969.41;4975239;28;20576;-77
2022/07/13 08:10:09;;;;;;;3.10;0.40;;;;;;;43.90;9.07;98979.66;4975632;28;20077;-76
2022/07/13 08:12:35;;;;;;;1.70;0.60;;;;;;;43.80;9.34;98997.34;4975617;28;20066;-75
2022/07/13 08:15:00;;;;;;;3.90;0.50;;;;;;;43.70;9.40;98990.28;4991583;28;20113;-76
2022/07/13 08:17:26;;;;;;;2.90;0.60;;;;;;;43.62;9.51;98984.81;4975541;28;20058;-76
2022/07/13 08:19:52;;;;;;;2.83;0.50;;;;;;;43.54;9.41;98995.53;4958822;28;20054;-76
2022/07/13 08:22:18;;;;;;;0.97;0.30;;;;;;;43.44;9.71;98993.16;4975860;28;20030;-75
2022/07/13 08:24:43;;;;;;;3.13;0.40;;;;;;;43.41;9.85;98995.75;4975363;28;20041;-76
2022/07/13 08:27:09;;;;;;;2.10;0.40;;;;;;;43.35;9.78;98987.69;4958681;28;20034;-75
2022/07/13 08:29:34;;;;;;;1.40;0.40;;;;;;;43.21;9.85;98981.59;4992806;28;20449;-76
2022/07/13 08:32:00;;;;;;;0.77;0.30;;;;;;;43.15;9.75;98988.41;4991577;28;20043;-77
2022/07/13 08:39:54;;;;;;;1.65;0.45;;;;;;;42.82;10.03;98995.22;4978066;28;20038;-77
2022/07/13 08:42:19;;;;;;;1.60;0.40;;;;;;;42.65;9.96;98982.34;4992619;28;20042;-76
2022/07/13 08:44:45;;;;;;;0.70;0.30;;;;;;;42.57;10.67;98993.31;4975269;28;20034;-76
2022/07/13 08:47:11;;;;;;;2.03;0.30;;;;;;;42.46;10.32;98982.66;4975136;28;20102;-76
2022/07/13 08:49:36;;;;;;;1.87;0.30;;;;;;;42.41;10.19;98993.78;4991504;28;20045;-76
2022/07/13 08:52:02;;;;;;;2.35;0.40;;;;;;;42.39;10.33;98995.25;4959059;28;20505;-77
2022/07/13 08:54:29;;;;;;;1.55;0.40;;;;;;;42.27;10.31;98988.47;4975280;28;20030;-75
2022/07/13 08:56:55;;;;;;;0.93;0.30;;;;;;;42.20;10.14;98979.13;4975387;28;20116;-76
2022/07/13 08:59:21;;;;;;;0.50;0.20;;;;;;;42.16;10.48;98989.91;4958811;28;20042;-77
2022/07/13 09:01:47;;;;;;;2.60;0.40;;;;;;;41.62;10.74;98990.06;4977650;28;20105;-76
2022/07/13 09:04:12;;;;;;;2.87;0.40;;;;;;;41.71;11.01;98982.72;4962575;28;20038;-76
2022/07/13 09:06:44;;;;;;;4.72;0.40;;;;;;;41.70;10.47;98996.69;4979123;28;20041;-76
2022/07/13 09:09:38;;;;;;;1.60;0.50;;;;;;;41.62;10.99;98992.00;4994745;28;20022;-77
2022/07/13 09:12:19;;;;;;;0.90;0.38;;;;;;;41.53;10.97;98983.75;4996065;28;20100;-77
2022/07/13 09:14:52;;;;;;;2.13;0.50;;;;;;;41.46;10.82;98986.16;4978594;28;20486;-76
2022/07/13 09:17:30;;;;;;;1.10;0.30;;;;;;;41.35;11.22;98988.34;4977999;28;20038;-76
2022/07/13 09:19:57;;;;;;;3.63;0.32;;;;;;;41.19;11.43;98994.22;4995642;28;20033;-76
2022/07/13 09:22:23;;;;;;;2.88;0.40;;;;;;;40.48;11.67;98994.84;4978274;28;20030;-76
2022/07/13 09:24:50;;;;;;;0.57;0.25;;;;;;;40.21;12.03;99005.84;4978234;28;20102;-76
2022/07/13 09:27:16;;;;;;;2.65;0.40;;;;;;;40.21;11.81;98992.19;4962103;28;20033;-77
2022/07/13 09:29:41;;;;;;;5.55;0.47;;;;;;;40.08;11.78;98991.09;4978004;28;20109;-77
2022/07/13 09:32:14;;;;;;;5.43;0.32;;;;;;;39.95;12.17;99003.66;4962003;28;20045;-77
2022/07/13 09:34:57;;;;;;;1.15;0.35;;;;;;;39.89;11.92;98991.19;4961248;28;20050;-77
2022/07/13 09:37:24;;;;;;;0.90;0.30;;;;;;;39.83;11.98;98989.69;4978726;28;20088;-77
2022/07/13 09:40:09;;;;;;;1.58;0.20;;;;;;;39.73;11.91;99016.09;4977833;28;20038;-76
2022/07/13 09:42:41;;;;;;;1.58;0.30;;;;;;;39.66;12.19;98995.75;4977721;28;20042;-79
2022/07/13 09:47:53;;;;;;;0.60;0.28;;;;;;;39.50;12.33;98984.28;4994118;28;20501;-77
2022/07/13 09:50:23;;;;;;;2.22;0.30;;;;;;;39.43;12.35;98987.44;4977637;28;20037;-76
2022/07/13 09:52:50;;;;;;;1.90;0.30;;;;;;;39.34;11.93;98984.59;4977683;28;20031;-76
2022/07/13 09:55:19;;;;;;;0.70;0.25;;;;;;;39.29;12.24;98973.75;4977845;28;20425;-76
2022/07/13 09:57:47;;;;;;;0.90;0.30;;;;;;;39.12;12.38;98971.59;4961648;28;20038;-76
2022/07/13 10:00:17;;;;;;;4.32;0.30;;;;;;;39.02;12.43;98975.31;4977467;28;20394;-77
2022/07/13 10:02:44;;;;;;;0.82;0.30;;;;;;;38.87;12.01;98970.94;4978492;28;20109;-78
2022/07/13 10:05:10;;;;;;;1.90;0.40;;;;;;;38.69;12.37;98975.31;4961074;28;20037;-76
2022/07/13 10:07:35;;;;;;;1.02;0.20;;;;;;;38.58;12.05;98971.09;4993574;28;20030;-78
2022/07/13 10:10:04;;;;;;;4.88;0.40;;;;;;;38.49;12.34;98964.69;4960793;28;20421;-78
2022/07/13 10:12:30;;;;;;;2.53;0.25;;;;;;;38.35;12.37;98970.06;4992943;28;20038;-76
2022/07/13 10:14:55;;;;;;;0.95;0.38;;;;;;;38.22;12.66;98963.44;4961163;28;20034;-77
2022/07/13 10:17:21;;;;;;;3.20;0.47;;;;;;;38.16;12.70;98972.81;4977220;28;20390;-76
2022/07/13 10:19:56;;;;;;;0.88;0.30;;;;;;;38.05;12.83;98966.69;4977522;28;20030;-77
2022/07/13 10:22:23;;;;;;;1.85;0.47;;;;;;;37.98;12.74;98958.84;4994302;28;20034;-77
2022/07/13 10:24:52;;;;;;;1.92;0.13;;;;;;;37.88;12.97;98945.38;4960948;28;20026;-76
2022/07/13 10:27:22;;;;;;;1.45;0.30;;;;;;;37.79;13.20;98947.91;4977102;28;20038;-77
2022/07/13 10:29:51;;;;;;;1.63;0.30;;;;;;;37.50;13.18;98942.53;4993404;28;20027;-76
2022/07/13 10:32:20;;;;;;;2.65;0.40;;;;;;;37.41;13.24;98950.53;4994592;28;20397;-78
2022/07/13 10:34:59;;;;;;;0.70;0.30;;;;;;;37.29;13.46;98939.22;4976422;28;20042;-77
2022/07/13 10:37:26;;;;;;;1.67;0.40;;;;;;;37.23;13.68;98934.97;4960022;28;20038;-77
2022/07/13 10:40:21;;;;;;;3.63;0.40;;;;;;;37.06;13.59;98941.59;4994267;28;20085;-76
2022/07/13 10:42:53;;;;;;;3.10;0.32;;;;;;;36.93;13.55;98939.56;4915300;29;20040;-78
2022/07/13 10:45:40;;;;;;;1.23;0.32;;;;;;;36.87;13.50;98935.28;4915377;29;20171;-77
2022/07/13 10:48:34;;;;;;;1.90;0.30;;;;;;;36.84;14.04;98944.00;4915623;29;20149;-77
2022/07/13 10:51:00;;;;;;;1.45;0.40;;;;;;;36.84;13.84;98939.38;4902548;29;20044;-77
2022/07/13 10:53:37;;;;;;;2.30;0.30;;;;;;;36.78;13.79;98937.78;4915420;29;20054;-76
2022/07/13 10:56:03;;;;;;;1.00;0.32;;;;;;;36.76;13.51;98923.66;4914808;29;20050;-76
2022/07/13 10:58:31;;;;;;;2.35;0.40;;;;;;;36.64;13.63;98931.34;4867870;29;20032;-77
2022/07/13 11:01:02;;;;;;;1.52;0.40;;;;;;;36.49;13.55;98919.50;4914926;29;20521;-77
2022/07/13 11:03:35;;;;;;;1.20;0.28;;;;;;;36.44;13.35;98910.59;4883923;29;20035;-77
2022/07/13 11:06:29;;;;;;;2.00;0.40;;;;;;;36.36;13.50;98912.81;4869819;29;20394;-76
2022/07/13 11:09:06;;;;;;;3.42;0.55;;;;;;;36.34;13.47;98909.56;4912529;29;20036;-76
2022/07/13 11:11:31;;;;;;;3.00;0.40;;;;;;;36.14;13.59;98918.63;4914922;29;20036;-77
2022/07/13 11:13:57;;;;;;;3.88;0.50;;;;;;;35.93;13.56;98920.66;4883650;29;20047;-77
2022/07/13 11:16:46;;;;;;;1.95;0.47;;;;;;;35.84;13.79;98914.19;4884280;29;20044;-78
2022/07/13 11:19:11;;;;;;;1.75;0.30;;;;;;;35.79;13.53;98893.31;4947080;28;20447;-78
2022/07/13 11:22:10;;;;;;;1.02;0.30;;;;;;;35.72;13.98;98890.03;4976184;28;20030;-76
2022/07/13 11:27:28;;;;;;;3.30;0.60;;;;;;;35.41;13.71;98905.63;4978461;28;20041;-77
2022/07/13 11:29:57;;;;;;;1.33;0.30;;;;;;;35.47;14.01;98910.78;4976612;28;20104;-77
2022/07/13 11:32:22;;;;;;;2.13;0.30;;;;;;;35.45;13.56;98923.81;4975886;28;20065;-78
2022/07/13 11:34:48;;;;;;;1.13;0.40;;;;;;;35.41;13.68;98902.94;4993452;28;20487;-77
2022/07/13 11:37:13;;;;;;;4.65;0.28;;;;;;;35.29;13.85;98906.75;4976269;28;20030;-77
2022/07/13 11:39:39;;;;;;;4.05;0.38;;;;;;;35.24;13.60;98901.34;4975400;28;20104;-77
2022/07/13 11:42:06;;;;;;;1.42;0.40;;;;;;;35.18;13.61;98885.34;4959602;28;20146;-77
2022/07/13 11:44:32;;;;;;;0.93;0.20;;;;;;;35.12;13.79;98889.97;4976095;28;20062;-77
2022/07/13 11:47:08;;;;;;;1.50;0.50;;;;;;;35.11;13.62;98894.59;4975726;28;20277;-77